AAL613 KLAX-KPHX
Flight info
| Callsign | AAL613 |
|---|---|
| Flight time | 0h 43m |
| Altitude | 35000 |
| Route | DOTSS2 CNERY DCT BLH HYDRR1 |
| Aircraft | A321/M-SDE3FGHIRWY/LB1 |
Departure
| Time | 2026-04-21 23:59 |
|---|---|
| Airport | Los Angeles International Airport (KLAX) |
Arrival
| Time | 2026-04-22 00:42 |
|---|---|
| Airport | Phoenix Sky Harbor International Airport (KPHX) |
| Time | Latitude | Longitude | Altitude | Speed | Heading |
|---|---|---|---|---|---|
| 2026-04-21 23:37 | 33.94024 | -118.40929 | 124 ft | 0 kts | 264° |
| 2026-04-21 23:48 | 33.94025 | -118.40913 | 121 ft | 4 kts | 264° |
| 2026-04-21 23:48 | 33.94028 | -118.40881 | 120 ft | 4 kts | 260° |
| 2026-04-21 23:49 | 33.94036 | -118.40851 | 121 ft | 4 kts | 234° |
| 2026-04-21 23:49 | 33.94055 | -118.40831 | 120 ft | 4 kts | 193° |
| 2026-04-21 23:49 | 33.94069 | -118.40830 | 124 ft | 1 kts | 172° |
| 2026-04-21 23:49 | 33.94071 | -118.40830 | 122 ft | 0 kts | 172° |
| 2026-04-21 23:52 | 33.94066 | -118.40829 | 124 ft | 2 kts | 172° |
| 2026-04-21 23:52 | 33.94041 | -118.40825 | 123 ft | 6 kts | 172° |
| 2026-04-21 23:52 | 33.93986 | -118.40817 | 122 ft | 10 kts | 173° |
| 2026-04-21 23:53 | 33.93908 | -118.40800 | 125 ft | 12 kts | 152° |
| 2026-04-21 23:53 | 33.93841 | -118.40736 | 126 ft | 13 kts | 151° |
| 2026-04-21 23:53 | 33.93813 | -118.40635 | 124 ft | 14 kts | 85° |
| 2026-04-21 23:53 | 33.93826 | -118.40508 | 122 ft | 17 kts | 83° |
| 2026-04-21 23:54 | 33.93842 | -118.40355 | 126 ft | 20 kts | 83° |
| 2026-04-21 23:54 | 33.93860 | -118.40177 | 126 ft | 23 kts | 82° |
| 2026-04-21 23:54 | 33.93880 | -118.39978 | 126 ft | 25 kts | 83° |
| 2026-04-21 23:54 | 33.93902 | -118.39763 | 126 ft | 26 kts | 83° |
| 2026-04-21 23:55 | 33.93925 | -118.39540 | 126 ft | 27 kts | 83° |
| 2026-04-21 23:55 | 33.93948 | -118.39314 | 126 ft | 28 kts | 82° |
| 2026-04-21 23:55 | 33.93972 | -118.39081 | 126 ft | 29 kts | 83° |
| 2026-04-21 23:55 | 33.93997 | -118.38841 | 120 ft | 29 kts | 81° |
| 2026-04-21 23:56 | 33.94021 | -118.38596 | 126 ft | 30 kts | 83° |
| 2026-04-21 23:56 | 33.94046 | -118.38348 | 126 ft | 29 kts | 83° |
| 2026-04-21 23:56 | 33.94068 | -118.38145 | 126 ft | 22 kts | 83° |
| 2026-04-21 23:56 | 33.94076 | -118.38040 | 126 ft | 2 kts | 98° |
| 2026-04-21 23:57 | 33.94074 | -118.38034 | 126 ft | 0 kts | 104° |
| 2026-04-21 23:57 | 33.94073 | -118.38030 | 126 ft | 2 kts | 110° |
| 2026-04-21 23:57 | 33.94056 | -118.38009 | 124 ft | 6 kts | 146° |
| 2026-04-21 23:57 | 33.94001 | -118.38008 | 122 ft | 9 kts | 210° |
| 2026-04-21 23:58 | 33.93979 | -118.38082 | 126 ft | 12 kts | 263° |
| 2026-04-21 23:58 | 33.93948 | -118.38372 | 125 ft | 71 kts | 262° |
| 2026-04-21 23:58 | 33.93857 | -118.39247 | 126 ft | 137 kts | 262° |
| 2026-04-21 23:58 | 33.93745 | -118.40571 | 391 ft | 164 kts | 261° |
| 2026-04-21 23:59 | 33.93653 | -118.41873 | 1361 ft | 153 kts | 263° |
| 2026-04-21 23:59 | 33.93518 | -118.43146 | 2059 ft | 156 kts | 263° |
| 2026-04-21 23:59 | 33.93367 | -118.44520 | 2389 ft | 176 kts | 263° |
| 2026-04-21 23:59 | 33.93018 | -118.46027 | 2632 ft | 200 kts | 245° |
| 2026-04-22 00:00 | 33.92152 | -118.47473 | 2823 ft | 227 kts | 233° |
| 2026-04-22 00:00 | 33.91125 | -118.49013 | 3321 ft | 242 kts | 233° |
| 2026-04-22 00:00 | 33.90039 | -118.50607 | 4027 ft | 249 kts | 231° |
| 2026-04-22 00:00 | 33.88918 | -118.52198 | 4891 ft | 250 kts | 231° |
| 2026-04-22 00:01 | 33.87782 | -118.53790 | 5714 ft | 251 kts | 227° |
| 2026-04-22 00:01 | 33.86398 | -118.55081 | 6519 ft | 255 kts | 208° |
| 2026-04-22 00:01 | 33.84706 | -118.55738 | 7289 ft | 259 kts | 190° |
| 2026-04-22 00:01 | 33.82881 | -118.55653 | 8043 ft | 268 kts | 172° |
| 2026-04-22 00:02 | 33.81049 | -118.55150 | 8791 ft | 272 kts | 172° |
| 2026-04-22 00:02 | 33.79197 | -118.54641 | 9547 ft | 274 kts | 172° |
| 2026-04-22 00:02 | 33.77323 | -118.54132 | 10205 ft | 281 kts | 173° |
| 2026-04-22 00:02 | 33.75338 | -118.53607 | 10403 ft | 304 kts | 173° |
| 2026-04-22 00:03 | 33.73210 | -118.52973 | 10746 ft | 325 kts | 166° |
| 2026-04-22 00:03 | 33.71158 | -118.51691 | 11311 ft | 343 kts | 150° |
| 2026-04-22 00:03 | 33.69412 | -118.49657 | 11938 ft | 358 kts | 133° |
| 2026-04-22 00:03 | 33.68204 | -118.47029 | 12496 ft | 373 kts | 115° |
| 2026-04-22 00:04 | 33.67321 | -118.44062 | 13076 ft | 379 kts | 114° |
| 2026-04-22 00:04 | 33.66439 | -118.41064 | 13679 ft | 384 kts | 114° |
| 2026-04-22 00:04 | 33.65543 | -118.38016 | 14200 ft | 389 kts | 114° |
| 2026-04-22 00:04 | 33.64752 | -118.34882 | 14729 ft | 397 kts | 105° |
| 2026-04-22 00:05 | 33.64445 | -118.31550 | 15250 ft | 406 kts | 93° |
| 2026-04-22 00:05 | 33.64460 | -118.28145 | 15770 ft | 410 kts | 92° |
| 2026-04-22 00:05 | 33.64475 | -118.24708 | 16306 ft | 415 kts | 92° |
| 2026-04-22 00:05 | 33.64482 | -118.21226 | 16820 ft | 419 kts | 92° |
| 2026-04-22 00:06 | 33.64482 | -118.17713 | 17327 ft | 423 kts | 93° |
| 2026-04-22 00:06 | 33.64475 | -118.14168 | 17824 ft | 427 kts | 93° |
| 2026-04-22 00:06 | 33.64463 | -118.10588 | 18317 ft | 431 kts | 93° |
| 2026-04-22 00:06 | 33.64453 | -118.06969 | 18787 ft | 436 kts | 93° |
| 2026-04-22 00:07 | 33.64450 | -118.03329 | 19318 ft | 437 kts | 93° |
| 2026-04-22 00:07 | 33.64448 | -117.99667 | 19808 ft | 440 kts | 93° |
| 2026-04-22 00:07 | 33.64446 | -117.95974 | 20251 ft | 443 kts | 93° |
| 2026-04-22 00:07 | 33.64441 | -117.92268 | 20687 ft | 446 kts | 93° |
| 2026-04-22 00:08 | 33.64434 | -117.88538 | 21138 ft | 448 kts | 93° |
| 2026-04-22 00:08 | 33.64422 | -117.84780 | 21560 ft | 451 kts | 93° |
| 2026-04-22 00:08 | 33.64352 | -117.81012 | 21952 ft | 452 kts | 98° |
| 2026-04-22 00:08 | 33.63848 | -117.77298 | 22342 ft | 450 kts | 109° |
| 2026-04-22 00:09 | 33.62979 | -117.73695 | 22760 ft | 451 kts | 111° |
| 2026-04-22 00:09 | 33.62094 | -117.70122 | 23151 ft | 454 kts | 111° |
| 2026-04-22 00:09 | 33.61181 | -117.66433 | 23553 ft | 457 kts | 111° |
| 2026-04-22 00:09 | 33.60273 | -117.62760 | 23904 ft | 460 kts | 111° |
| 2026-04-22 00:10 | 33.59378 | -117.59118 | 24230 ft | 463 kts | 112° |
| 2026-04-22 00:10 | 33.58462 | -117.55410 | 24568 ft | 466 kts | 112° |
| 2026-04-22 00:10 | 33.57534 | -117.51671 | 24916 ft | 469 kts | 112° |
| 2026-04-22 00:10 | 33.56602 | -117.47912 | 25254 ft | 471 kts | 112° |
| 2026-04-22 00:11 | 33.55667 | -117.44145 | 25606 ft | 473 kts | 112° |
| 2026-04-22 00:11 | 33.54724 | -117.40351 | 25968 ft | 475 kts | 112° |
| 2026-04-22 00:11 | 33.53776 | -117.36545 | 26310 ft | 478 kts | 112° |
| 2026-04-22 00:11 | 33.52821 | -117.32724 | 26645 ft | 480 kts | 112° |
| 2026-04-22 00:12 | 33.51858 | -117.28878 | 26963 ft | 483 kts | 113° |
| 2026-04-22 00:12 | 33.50944 | -117.24990 | 27259 ft | 489 kts | 108° |
| 2026-04-22 00:12 | 33.50459 | -117.20929 | 27544 ft | 498 kts | 97° |
| 2026-04-22 00:12 | 33.50387 | -117.16750 | 27807 ft | 503 kts | 95° |
| 2026-04-22 00:13 | 33.50344 | -117.12561 | 28178 ft | 503 kts | 95° |
| 2026-04-22 00:13 | 33.50293 | -117.08362 | 28503 ft | 505 kts | 95° |
| 2026-04-22 00:13 | 33.50234 | -117.04135 | 28807 ft | 508 kts | 95° |
| 2026-04-22 00:13 | 33.50173 | -116.99900 | 29110 ft | 510 kts | 96° |
| 2026-04-22 00:14 | 33.50108 | -116.95637 | 29396 ft | 513 kts | 96° |
| 2026-04-22 00:14 | 33.50043 | -116.91346 | 29689 ft | 515 kts | 96° |
| 2026-04-22 00:14 | 33.49979 | -116.87044 | 29971 ft | 518 kts | 96° |
| 2026-04-22 00:14 | 33.49917 | -116.82735 | 30271 ft | 517 kts | 95° |
| 2026-04-22 00:15 | 33.49851 | -116.78433 | 30572 ft | 517 kts | 95° |
| 2026-04-22 00:15 | 33.49778 | -116.74123 | 30808 ft | 518 kts | 95° |
| 2026-04-22 00:15 | 33.49705 | -116.69855 | 31026 ft | 520 kts | 95° |
| 2026-04-22 00:15 | 33.49630 | -116.65521 | 31238 ft | 521 kts | 95° |
| 2026-04-22 00:16 | 33.49555 | -116.61175 | 31425 ft | 522 kts | 95° |
| 2026-04-22 00:16 | 33.49482 | -116.56826 | 31697 ft | 522 kts | 95° |
| 2026-04-22 00:16 | 33.49407 | -116.52488 | 31946 ft | 521 kts | 95° |
| 2026-04-22 00:16 | 33.49328 | -116.48140 | 32213 ft | 521 kts | 95° |
| 2026-04-22 00:17 | 33.49248 | -116.43813 | 32505 ft | 520 kts | 95° |
| 2026-04-22 00:17 | 33.49167 | -116.39484 | 32807 ft | 519 kts | 95° |
| 2026-04-22 00:17 | 33.49094 | -116.35160 | 33083 ft | 519 kts | 95° |
| 2026-04-22 00:17 | 33.49028 | -116.30849 | 33333 ft | 518 kts | 95° |
| 2026-04-22 00:18 | 33.48966 | -116.26534 | 33558 ft | 518 kts | 95° |
| 2026-04-22 00:18 | 33.48905 | -116.22220 | 33803 ft | 518 kts | 95° |
| 2026-04-22 00:18 | 33.48842 | -116.17903 | 34063 ft | 518 kts | 95° |
| 2026-04-22 00:18 | 33.48776 | -116.13588 | 34318 ft | 517 kts | 95° |
| 2026-04-22 00:19 | 33.48707 | -116.09289 | 34539 ft | 516 kts | 95° |
| 2026-04-22 00:19 | 33.48848 | -116.04983 | 34776 ft | 519 kts | 86° |
| 2026-04-22 00:19 | 33.49489 | -116.00725 | 34936 ft | 522 kts | 76° |
| 2026-04-22 00:20 | 33.51788 | -115.92576 | 34957 ft | 510 kts | 71° |
| 2026-04-22 00:20 | 33.54117 | -115.84637 | 34955 ft | 502 kts | 71° |
| 2026-04-22 00:21 | 33.56412 | -115.76737 | 34960 ft | 501 kts | 72° |
| 2026-04-22 00:21 | 33.58706 | -115.68853 | 34948 ft | 501 kts | 71° |
| 2026-04-22 00:22 | 33.61022 | -115.60856 | 34945 ft | 513 kts | 72° |
| 2026-04-22 00:22 | 33.62390 | -115.52486 | 34951 ft | 514 kts | 95° |
| 2026-04-22 00:23 | 33.62147 | -115.43877 | 34936 ft | 519 kts | 96° |
| 2026-04-22 00:23 | 33.61809 | -115.35221 | 34937 ft | 520 kts | 96° |
| 2026-04-22 00:24 | 33.61481 | -115.26535 | 34925 ft | 523 kts | 96° |
| 2026-04-22 00:24 | 33.61222 | -115.19278 | 34934 ft | 525 kts | 96° |
| 2026-04-22 00:25 | 33.60915 | -115.10513 | 34935 ft | 526 kts | 96° |
| 2026-04-22 00:25 | 33.60596 | -115.01747 | 34940 ft | 526 kts | 96° |
| 2026-04-22 00:26 | 33.60268 | -114.93001 | 34701 ft | 521 kts | 96° |
| 2026-04-22 00:26 | 33.60101 | -114.88669 | 34235 ft | 517 kts | 96° |
| 2026-04-22 00:26 | 33.59934 | -114.84346 | 34003 ft | 522 kts | 96° |
| 2026-04-22 00:26 | 33.59761 | -114.79984 | 33502 ft | 524 kts | 96° |
| 2026-04-22 00:27 | 33.59456 | -114.75641 | 33006 ft | 521 kts | 104° |
| 2026-04-22 00:27 | 33.58697 | -114.71407 | 32472 ft | 519 kts | 108° |
| 2026-04-22 00:27 | 33.57873 | -114.67187 | 31948 ft | 520 kts | 108° |
| 2026-04-22 00:27 | 33.57061 | -114.63004 | 31541 ft | 510 kts | 108° |
| 2026-04-22 00:28 | 33.56273 | -114.58922 | 31144 ft | 497 kts | 108° |
| 2026-04-22 00:28 | 33.55496 | -114.54911 | 30578 ft | 490 kts | 108° |
| 2026-04-22 00:28 | 33.54728 | -114.50960 | 29936 ft | 486 kts | 108° |
| 2026-04-22 00:28 | 33.53958 | -114.47027 | 29448 ft | 483 kts | 108° |
| 2026-04-22 00:29 | 33.53192 | -114.43120 | 28972 ft | 479 kts | 108° |
| 2026-04-22 00:29 | 33.52431 | -114.39249 | 28531 ft | 476 kts | 108° |
| 2026-04-22 00:29 | 33.50768 | -114.30829 | 27490 ft | 466 kts | 108° |
| 2026-04-22 00:29 | 33.47826 | -114.15973 | 25830 ft | 451 kts | 108° |
| 2026-04-22 00:30 | 33.44942 | -114.01514 | 24309 ft | 433 kts | 108° |
| 2026-04-22 00:30 | 33.42100 | -113.87417 | 23565 ft | 437 kts | 108° |
| 2026-04-22 00:30 | 33.39344 | -113.73684 | 22559 ft | 426 kts | 108° |
| 2026-04-22 00:30 | 33.36583 | -113.60089 | 21513 ft | 417 kts | 108° |
| 2026-04-22 00:31 | 33.33862 | -113.46753 | 20472 ft | 409 kts | 108° |
| 2026-04-22 00:31 | 33.31525 | -113.33558 | 19414 ft | 403 kts | 105° |
| 2026-04-22 00:31 | 33.29337 | -113.20556 | 18440 ft | 387 kts | 104° |
| 2026-04-22 00:31 | 33.27618 | -113.08348 | 17408 ft | 369 kts | 102° |
| 2026-04-22 00:32 | 33.27751 | -112.96333 | 16336 ft | 348 kts | 91° |
| 2026-04-22 00:32 | 33.27982 | -112.84762 | 15372 ft | 345 kts | 91° |
| 2026-04-22 00:32 | 33.28766 | -112.73612 | 14428 ft | 336 kts | 85° |
| 2026-04-22 00:32 | 33.29893 | -112.62644 | 13472 ft | 329 kts | 86° |
| 2026-04-22 00:33 | 33.30883 | -112.51876 | 12438 ft | 323 kts | 87° |
| 2026-04-22 00:33 | 33.31848 | -112.41352 | 11441 ft | 313 kts | 87° |
| 2026-04-22 00:33 | 33.32789 | -112.31111 | 10508 ft | 307 kts | 87° |
| 2026-04-22 00:33 | 33.33702 | -112.21121 | 9546 ft | 298 kts | 88° |
| 2026-04-22 00:34 | 33.34172 | -112.15859 | 8870 ft | 287 kts | 87° |
| 2026-04-22 00:34 | 33.34587 | -112.11287 | 8610 ft | 266 kts | 86° |
| 2026-04-22 00:34 | 33.34730 | -112.07021 | 8144 ft | 254 kts | 95° |
| 2026-04-22 00:34 | 33.34671 | -112.02787 | 7504 ft | 253 kts | 94° |
| 2026-04-22 00:35 | 33.34624 | -111.98594 | 6852 ft | 253 kts | 94° |
| 2026-04-22 00:35 | 33.34574 | -111.94387 | 6200 ft | 252 kts | 92° |
| 2026-04-22 00:35 | 33.34594 | -111.90202 | 5483 ft | 253 kts | 90° |
| 2026-04-22 00:35 | 33.34706 | -111.86014 | 4812 ft | 251 kts | 89° |
| 2026-04-22 00:36 | 33.34787 | -111.82849 | 4256 ft | 251 kts | 89° |
| 2026-04-22 00:36 | 33.34839 | -111.80779 | 4038 ft | 247 kts | 88° |
| 2026-04-22 00:36 | 33.35321 | -111.78817 | 4026 ft | 249 kts | 57° |
| 2026-04-22 00:36 | 33.36562 | -111.77408 | 4021 ft | 249 kts | 24° |
| 2026-04-22 00:37 | 33.38203 | -111.76833 | 4024 ft | 245 kts | 2° |
| 2026-04-22 00:37 | 33.39879 | -111.76923 | 4026 ft | 239 kts | 345° |
| 2026-04-22 00:37 | 33.41419 | -111.77620 | 4032 ft | 235 kts | 326° |
| 2026-04-22 00:37 | 33.42677 | -111.78818 | 4026 ft | 230 kts | 308° |
| 2026-04-22 00:38 | 33.43540 | -111.80329 | 4000 ft | 214 kts | 292° |
| 2026-04-22 00:38 | 33.43985 | -111.81993 | 3820 ft | 208 kts | 277° |
| 2026-04-22 00:38 | 33.44049 | -111.83705 | 3590 ft | 203 kts | 268° |
| 2026-04-22 00:38 | 33.44053 | -111.85383 | 3343 ft | 198 kts | 269° |
| 2026-04-22 00:39 | 33.44057 | -111.86985 | 3091 ft | 183 kts | 268° |
| 2026-04-22 00:39 | 33.44062 | -111.88407 | 2860 ft | 160 kts | 269° |
| 2026-04-22 00:39 | 33.44063 | -111.89664 | 2653 ft | 147 kts | 270° |
| 2026-04-22 00:39 | 33.44070 | -111.90858 | 2513 ft | 144 kts | 269° |
| 2026-04-22 00:40 | 33.44071 | -111.92048 | 2347 ft | 141 kts | 268° |
| 2026-04-22 00:40 | 33.44075 | -111.93216 | 2095 ft | 140 kts | 269° |
| 2026-04-22 00:40 | 33.44080 | -111.94382 | 1928 ft | 140 kts | 268° |
| 2026-04-22 00:40 | 33.44082 | -111.95548 | 1756 ft | 139 kts | 268° |
| 2026-04-22 00:41 | 33.44085 | -111.96722 | 1558 ft | 145 kts | 272° |
| 2026-04-22 00:41 | 33.44095 | -111.97927 | 1486 ft | 145 kts | 271° |
| 2026-04-22 00:41 | 33.44090 | -111.99127 | 1281 ft | 143 kts | 268° |
| 2026-04-22 00:41 | 33.44085 | -112.00255 | 1154 ft | 123 kts | 269° |
| 2026-04-22 00:42 | 33.44085 | -112.01009 | 1153 ft | 56 kts | 270° |
| 2026-04-22 00:42 | 33.44082 | -112.01270 | 1154 ft | 13 kts | 262° |
| 2026-04-22 00:42 | 33.44059 | -112.01336 | 1157 ft | 4 kts | 234° |
| 2026-04-22 00:42 | 33.44029 | -112.01358 | 1156 ft | 7 kts | 191° |
| 2026-04-22 00:43 | 33.43983 | -112.01332 | 1152 ft | 9 kts | 123° |
| 2026-04-22 00:43 | 33.43978 | -112.01256 | 1156 ft | 10 kts | 85° |
| 2026-04-22 00:43 | 33.43979 | -112.01169 | 1156 ft | 11 kts | 91° |
| 2026-04-22 00:43 | 33.43976 | -112.01067 | 1154 ft | 13 kts | 92° |
| 2026-04-22 00:44 | 33.43975 | -112.00949 | 1154 ft | 15 kts | 90° |
| 2026-04-22 00:44 | 33.43975 | -112.00816 | 1152 ft | 17 kts | 90° |
| 2026-04-22 00:44 | 33.43974 | -112.00672 | 1153 ft | 18 kts | 90° |
| 2026-04-22 00:44 | 33.43974 | -112.00516 | 1151 ft | 20 kts | 89° |
| 2026-04-22 00:45 | 33.43974 | -112.00377 | 1151 ft | 14 kts | 91° |
| 2026-04-22 00:45 | 33.43974 | -112.00253 | 1155 ft | 15 kts | 90° |
| 2026-04-22 00:45 | 33.43974 | -112.00139 | 1154 ft | 10 kts | 91° |
| 2026-04-22 00:45 | 33.43929 | -112.00080 | 1155 ft | 12 kts | 174° |
| 2026-04-22 00:46 | 33.43846 | -112.00078 | 1153 ft | 8 kts | 179° |
| 2026-04-22 00:46 | 33.43786 | -112.00078 | 1152 ft | 9 kts | 180° |
| 2026-04-22 00:46 | 33.43756 | -112.00101 | 1157 ft | 0 kts | 255° |
| 2026-04-22 00:46 | 33.43756 | -112.00116 | 1151 ft | 3 kts | 264° |
| 2026-04-22 00:47 | 33.43755 | -112.00131 | 1154 ft | 0 kts | 270° |